Time;durP1;ratioP1;P1;durP2;ratioP2;P2;SDS_P1;SDS_P2;PMS_P1;PMS_P2;Temp;Humidity;BMP_temperature;BMP_pressure;BME280_temperature;BME280_humidity;BME280_pressure;Samples;Min_cycle;Max_cycle;Signal;HPM_P1;HPM_P2
2022/03/13 00:01:32;;;;;;;10.00;4.35;;;;;;;;;;1729704;83;21585;-70
2022/03/13 00:04:01;;;;;;;8.40;4.83;;;;;;;;;;1729660;83;21013;-69
2022/03/13 00:06:27;;;;;;;8.90;4.55;;;;;;;;;;1729810;83;21040;-70
2022/03/13 00:08:58;;;;;;;6.53;3.98;;;;;;;;;;1729423;83;21029;-69
2022/03/13 00:11:23;;;;;;;8.43;4.40;;;;;;;;;;1729719;82;22096;-69
2022/03/13 00:13:54;;;;;;;9.48;4.30;;;;;;;;;;1729589;82;21572;-69
2022/03/13 00:16:22;;;;;;;10.65;4.70;;;;;;;;;;1729619;82;21190;-69
2022/03/13 00:18:48;;;;;;;8.40;5.17;;;;;;;;;;1729650;82;21042;-69
2022/03/13 00:21:15;;;;;;;6.40;4.20;;;;;;;;;;1729651;83;20993;-69
2022/03/13 00:23:42;;;;;;;10.18;4.85;;;;;;;;;;1729271;83;21096;-70
2022/03/13 00:26:09;;;;;;;11.18;5.03;;;;;;;;;;1729479;83;21040;-69
2022/03/13 00:28:37;;;;;;;5.50;3.60;;;;;;;;;;1729618;83;21544;-69
2022/03/13 00:31:04;;;;;;;10.72;5.28;;;;;;;;;;1729639;83;21032;-69
2022/03/13 00:33:31;;;;;;;8.55;4.55;;;;;;;;;;1729512;81;21044;-69
2022/03/13 00:35:57;;;;;;;9.23;4.25;;;;;;;;;;1729594;82;21112;-70
2022/03/13 00:39:40;;;;;;;9.35;5.05;;;;;;;;;;1801899;79;23181;-69
2022/03/13 00:42:07;;;;;;;7.65;4.90;;;;;;;;;;1761892;81;22071;-69
2022/03/13 00:44:34;;;;;;;10.90;6.40;;;;;;;;;;1761691;81;21088;-69
2022/03/13 00:47:00;;;;;;;11.22;5.22;;;;;;;;;;1761870;81;21064;-69
2022/03/13 00:49:26;;;;;;;8.45;4.35;;;;;;;;;;1761785;81;20977;-69
2022/03/13 00:51:52;;;;;;;8.85;4.47;;;;;;;;;;1761560;81;21001;-69
2022/03/13 00:54:19;;;;;;;10.98;4.33;;;;;;;;;;1761650;81;21072;-69
2022/03/13 00:56:45;;;;;;;5.28;3.45;;;;;;;;;;1761764;81;21528;-69
2022/03/13 00:59:14;;;;;;;8.95;4.47;;;;;;;;;;1761677;81;21064;-69
2022/03/13 01:04:31;;;;;;;11.53;5.08;;;;;;;;;;1705299;78;21132;-70
2022/03/13 01:06:58;;;;;;;8.85;4.67;;;;;;;;;;1682391;85;21045;-69
2022/03/13 01:09:24;;;;;;;10.23;5.33;;;;;;;;;;1682334;85;20977;-69
2022/03/13 01:11:50;;;;;;;10.93;5.65;;;;;;;;;;1682411;85;21053;-68
2022/03/13 01:14:17;;;;;;;7.58;4.67;;;;;;;;;;1682386;85;21025;-69
2022/03/13 01:16:44;;;;;;;12.78;5.65;;;;;;;;;;1714328;84;21076;-69
2022/03/13 01:19:10;;;;;;;7.40;4.95;;;;;;;;;;1714271;84;21037;-69
2022/03/13 01:21:41;;;;;;;13.50;5.17;;;;;;;;;;1714344;84;21045;-69
2022/03/13 01:24:09;;;;;;;10.72;4.78;;;;;;;;;;1714344;84;21587;-69
2022/03/13 01:26:37;;;;;;;9.25;5.50;;;;;;;;;;1714378;84;21037;-68
2022/03/13 01:29:05;;;;;;;7.92;4.87;;;;;;;;;;1714184;84;21044;-68
2022/03/13 01:31:34;;;;;;;13.18;5.58;;;;;;;;;;1714263;84;21053;-68
2022/03/13 01:34:02;;;;;;;10.45;4.78;;;;;;;;;;1714056;83;21092;-68
2022/03/13 01:36:29;;;;;;;9.98;5.62;;;;;;;;;;1714411;84;21047;-68
2022/03/13 01:38:57;;;;;;;11.80;5.40;;;;;;;;;;1714420;84;20997;-69
2022/03/13 01:41:23;;;;;;;12.33;5.20;;;;;;;;;;1714038;84;21033;-69
2022/03/13 01:43:50;;;;;;;10.68;6.22;;;;;;;;;;1714334;84;21116;-68
2022/03/13 01:46:17;;;;;;;9.90;5.00;;;;;;;;;;1714357;84;21005;-68
2022/03/13 01:48:59;;;;;;;12.03;5.80;;;;;;;;;;1714499;84;21045;-68
2022/03/13 01:51:26;;;;;;;10.40;5.03;;;;;;;;;;1713806;84;21036;-69
2022/03/13 01:53:53;;;;;;;11.33;5.60;;;;;;;;;;1713892;84;20997;-69
2022/03/13 01:56:21;;;;;;;9.53;4.97;;;;;;;;;;1713785;84;21079;-70
2022/03/13 01:58:49;;;;;;;12.10;5.47;;;;;;;;;;1713758;84;21107;-69
2022/03/13 02:01:15;;;;;;;10.88;5.65;;;;;;;;;;1713846;84;21032;-69
2022/03/13 02:03:44;;;;;;;7.03;4.62;;;;;;;;;;1713607;82;21080;-70
2022/03/13 02:06:11;;;;;;;8.08;4.37;;;;;;;;;;1713668;83;21076;-70
2022/03/13 02:08:39;;;;;;;10.48;4.92;;;;;;;;;;1713780;84;21052;-70
2022/03/13 02:11:05;;;;;;;10.40;6.17;;;;;;;;;;1713540;83;21056;-69
2022/03/13 02:13:34;;;;;;;10.90;5.30;;;;;;;;;;1713563;83;21072;-70
2022/03/13 02:16:03;;;;;;;10.65;4.92;;;;;;;;;;1713767;84;21084;-70
2022/03/13 02:18:29;;;;;;;11.60;5.50;;;;;;;;;;1713834;84;21422;-69
2022/03/13 02:20:57;;;;;;;8.13;4.50;;;;;;;;;;1713702;84;21136;-69
2022/03/13 02:23:26;;;;;;;12.28;5.33;;;;;;;;;;1713467;84;21037;-70
2022/03/13 02:25:57;;;;;;;10.70;5.15;;;;;;;;;;1713778;84;21032;-69
2022/03/13 02:28:30;;;;;;;9.40;5.70;;;;;;;;;;1713529;84;21025;-69
2022/03/13 02:30:58;;;;;;;10.03;5.08;;;;;;;;;;1714023;83;21025;-69
2022/03/13 02:33:25;;;;;;;10.63;5.10;;;;;;;;;;1713626;84;21573;-69
2022/03/13 02:35:52;;;;;;;9.68;5.22;;;;;;;;;;1713697;84;21576;-69
2022/03/13 02:38:19;;;;;;;8.75;4.75;;;;;;;;;;1713565;84;21056;-69
2022/03/13 02:40:47;;;;;;;8.55;5.40;;;;;;;;;;1713782;84;21008;-69
2022/03/13 02:43:15;;;;;;;8.33;5.15;;;;;;;;;;1713608;83;21119;-69
2022/03/13 02:45:41;;;;;;;9.90;4.83;;;;;;;;;;1685747;84;21068;-69
2022/03/13 02:48:08;;;;;;;7.83;4.40;;;;;;;;;;1713857;84;21001;-69
2022/03/13 02:50:35;;;;;;;6.92;3.77;;;;;;;;;;1713510;84;21056;-70
2022/03/13 02:53:01;;;;;;;11.45;5.50;;;;;;;;;;1713827;84;21029;-69
2022/03/13 02:55:29;;;;;;;6.58;3.87;;;;;;;;;;1713532;84;21065;-69
2022/03/13 02:57:55;;;;;;;11.00;4.83;;;;;;;;;;1713794;84;21048;-69
2022/03/13 03:00:22;;;;;;;10.88;4.90;;;;;;;;;;1713785;84;21539;-69
2022/03/13 03:02:49;;;;;;;10.68;5.00;;;;;;;;;;1713899;82;21556;-69
2022/03/13 03:05:17;;;;;;;13.48;5.45;;;;;;;;;;1713546;84;21084;-69
2022/03/13 03:07:43;;;;;;;10.00;4.75;;;;;;;;;;1713921;84;21563;-69
2022/03/13 03:10:12;;;;;;;9.00;4.87;;;;;;;;;;1713736;84;21080;-69
2022/03/13 03:12:39;;;;;;;8.93;4.83;;;;;;;;;;1714038;84;21061;-69
2022/03/13 03:15:07;;;;;;;9.63;5.42;;;;;;;;;;1713919;84;21125;-69
2022/03/13 03:17:34;;;;;;;8.30;4.80;;;;;;;;;;1713832;84;21053;-69
2022/03/13 03:20:01;;;;;;;10.13;4.72;;;;;;;;;;1714077;84;21081;-69
2022/03/13 03:22:29;;;;;;;9.70;4.78;;;;;;;;;;1713665;83;21013;-68
2022/03/13 03:24:56;;;;;;;7.95;4.72;;;;;;;;;;1713902;84;21056;-68
2022/03/13 03:27:23;;;;;;;11.65;5.20;;;;;;;;;;1713710;84;21017;-68
2022/03/13 03:29:50;;;;;;;7.20;3.98;;;;;;;;;;1713881;83;21084;-68
2022/03/13 03:32:17;;;;;;;9.23;5.53;;;;;;;;;;1714051;84;21033;-68
2022/03/13 03:34:43;;;;;;;8.90;4.50;;;;;;;;;;1713775;84;21091;-69
2022/03/13 03:37:10;;;;;;;7.47;4.28;;;;;;;;;;1713576;84;21071;-69
2022/03/13 03:39:37;;;;;;;11.78;5.08;;;;;;;;;;1713432;83;21049;-69
2022/03/13 03:42:04;;;;;;;8.48;4.92;;;;;;;;;;1713933;83;21016;-69
2022/03/13 03:44:30;;;;;;;11.40;5.40;;;;;;;;;;1713704;84;21091;-70
2022/03/13 03:46:56;;;;;;;10.53;4.30;;;;;;;;;;1713921;84;21036;-69
2022/03/13 03:49:23;;;;;;;11.30;5.28;;;;;;;;;;1713650;84;21096;-69
2022/03/13 03:51:50;;;;;;;9.98;5.35;;;;;;;;;;1713797;84;21076;-69
2022/03/13 03:54:16;;;;;;;12.28;5.87;;;;;;;;;;1713801;84;21099;-69
2022/03/13 03:56:43;;;;;;;8.98;5.45;;;;;;;;;;1713758;84;21044;-68
2022/03/13 03:59:10;;;;;;;9.13;4.55;;;;;;;;;;1713492;83;21143;-69
2022/03/13 04:01:37;;;;;;;7.42;4.55;;;;;;;;;;1713778;84;21096;-70
2022/03/13 04:04:08;;;;;;;9.18;5.40;;;;;;;;;;1713395;82;21104;-70
2022/03/13 04:06:38;;;;;;;10.68;5.37;;;;;;;;;;1713595;83;21468;-69
2022/03/13 04:09:03;;;;;;;8.90;4.67;;;;;;;;;;1713671;84;21053;-70
2022/03/13 04:11:31;;;;;;;10.10;5.25;;;;;;;;;;1713878;83;21083;-71
2022/03/13 04:13:58;;;;;;;6.67;4.08;;;;;;;;;;1713684;84;21041;-69
2022/03/13 04:16:24;;;;;;;7.65;4.60;;;;;;;;;;1713850;83;21037;-70
2022/03/13 04:18:52;;;;;;;9.73;5.28;;;;;;;;;;1713584;84;21084;-70
2022/03/13 04:21:19;;;;;;;9.78;4.72;;;;;;;;;;1713460;84;21052;-70
2022/03/13 04:23:45;;;;;;;7.40;4.08;;;;;;;;;;1713886;84;21064;-70
2022/03/13 04:26:12;;;;;;;11.33;4.72;;;;;;;;;;1713547;84;21131;-70
2022/03/13 04:28:39;;;;;;;9.08;4.78;;;;;;;;;;1713826;84;21080;-70
2022/03/13 04:31:08;;;;;;;10.05;4.20;;;;;;;;;;1713822;84;21516;-70
2022/03/13 04:33:35;;;;;;;7.65;4.40;;;;;;;;;;1713902;83;21117;-68
2022/03/13 04:36:03;;;;;;;9.95;4.70;;;;;;;;;;1713911;84;21036;-68
2022/03/13 04:38:29;;;;;;;7.25;4.42;;;;;;;;;;1713893;84;21029;-69
2022/03/13 04:40:56;;;;;;;14.47;5.60;;;;;;;;;;1713893;83;21001;-69
2022/03/13 04:43:22;;;;;;;8.53;4.72;;;;;;;;;;1713939;84;21004;-69
2022/03/13 04:45:49;;;;;;;12.00;5.47;;;;;;;;;;1713869;84;21029;-68
2022/03/13 04:48:17;;;;;;;10.13;5.60;;;;;;;;;;1713590;84;21083;-68
2022/03/13 04:50:43;;;;;;;7.08;4.45;;;;;;;;;;1713816;84;21005;-69
2022/03/13 04:53:11;;;;;;;10.13;4.72;;;;;;;;;;1713641;84;21084;-69
2022/03/13 04:55:37;;;;;;;12.93;5.78;;;;;;;;;;1713753;84;21104;-69
2022/03/13 04:58:06;;;;;;;8.70;4.65;;;;;;;;;;1713495;84;21064;-69
2022/03/13 05:00:34;;;;;;;13.50;5.50;;;;;;;;;;1713726;83;21615;-69
2022/03/13 05:03:00;;;;;;;11.05;5.80;;;;;;;;;;1713506;82;21547;-70
2022/03/13 05:05:27;;;;;;;10.85;4.87;;;;;;;;;;1713608;84;21017;-69
2022/03/13 05:07:54;;;;;;;10.18;4.15;;;;;;;;;;1713714;84;21028;-69
2022/03/13 05:10:26;;;;;;;16.57;6.28;;;;;;;;;;1713756;84;21128;-69
2022/03/13 05:12:51;;;;;;;10.05;4.72;;;;;;;;;;1713438;84;21049;-68
2022/03/13 05:15:19;;;;;;;9.18;4.65;;;;;;;;;;1713719;84;21057;-68
2022/03/13 05:17:47;;;;;;;10.10;5.05;;;;;;;;;;1713531;84;21045;-68
2022/03/13 05:20:13;;;;;;;14.35;5.15;;;;;;;;;;1713901;84;21040;-68
2022/03/13 05:22:41;;;;;;;9.48;5.10;;;;;;;;;;1713587;83;21017;-69
2022/03/13 05:25:09;;;;;;;6.97;3.85;;;;;;;;;;1713736;84;21115;-69
2022/03/13 05:27:35;;;;;;;7.33;4.40;;;;;;;;;;1713925;84;21112;-68
2022/03/13 05:30:05;;;;;;;9.53;4.50;;;;;;;;;;1713872;84;21095;-69
2022/03/13 05:32:35;;;;;;;10.68;4.33;;;;;;;;;;1713621;83;21627;-69
2022/03/13 05:35:01;;;;;;;9.28;5.35;;;;;;;;;;1713913;84;21021;-69
2022/03/13 05:37:27;;;;;;;11.40;5.45;;;;;;;;;;1713910;83;21009;-69
2022/03/13 05:39:55;;;;;;;8.10;5.15;;;;;;;;;;1713529;83;21076;-69
2022/03/13 05:42:24;;;;;;;7.80;4.10;;;;;;;;;;1713909;84;21007;-69
2022/03/13 05:44:49;;;;;;;9.25;4.67;;;;;;;;;;1713731;84;21033;-69
2022/03/13 05:47:17;;;;;;;9.50;5.20;;;;;;;;;;1714029;84;21084;-69
2022/03/13 05:49:45;;;;;;;8.48;4.20;;;;;;;;;;1713765;84;21044;-70
2022/03/13 05:52:13;;;;;;;10.13;5.20;;;;;;;;;;1713933;83;21687;-70
2022/03/13 05:54:40;;;;;;;13.00;5.62;;;;;;;;;;1713508;84;21060;-69
2022/03/13 05:57:09;;;;;;;8.18;4.47;;;;;;;;;;1713897;84;21620;-70
2022/03/13 05:59:35;;;;;;;11.53;5.15;;;;;;;;;;1713985;83;21045;-70
2022/03/13 06:02:04;;;;;;;9.33;4.78;;;;;;;;;;1714045;84;21001;-70
2022/03/13 06:04:32;;;;;;;8.30;4.95;;;;;;;;;;1713733;82;21344;-69
2022/03/13 06:06:59;;;;;;;8.83;4.40;;;;;;;;;;1713939;84;21048;-69
2022/03/13 06:09:26;;;;;;;7.92;4.53;;;;;;;;;;1713819;84;21119;-69
2022/03/13 06:11:53;;;;;;;9.10;4.47;;;;;;;;;;1713935;84;21096;-69
2022/03/13 06:14:20;;;;;;;8.63;4.90;;;;;;;;;;1714053;84;21061;-69
2022/03/13 06:16:48;;;;;;;8.80;4.58;;;;;;;;;;1713903;84;21068;-70
2022/03/13 06:19:15;;;;;;;7.62;4.28;;;;;;;;;;1713776;84;21056;-70
2022/03/13 06:21:42;;;;;;;11.08;4.67;;;;;;;;;;1713960;84;21028;-68
2022/03/13 06:24:09;;;;;;;8.63;4.30;;;;;;;;;;1713952;84;21052;-69
2022/03/13 06:26:36;;;;;;;8.33;4.80;;;;;;;;;;1713761;84;21088;-69
2022/03/13 06:29:04;;;;;;;9.05;4.12;;;;;;;;;;1713953;84;21033;-69
2022/03/13 06:31:30;;;;;;;8.98;4.08;;;;;;;;;;1713509;84;21080;-69
2022/03/13 06:33:56;;;;;;;7.55;3.98;;;;;;;;;;1713895;84;21040;-69
2022/03/13 06:36:23;;;;;;;7.12;4.17;;;;;;;;;;1713775;84;21088;-70
2022/03/13 06:38:50;;;;;;;7.60;4.55;;;;;;;;;;1713854;84;21092;-69
2022/03/13 06:41:19;;;;;;;9.28;5.58;;;;;;;;;;1713724;84;21033;-70
2022/03/13 06:43:45;;;;;;;9.25;4.40;;;;;;;;;;1713927;83;21033;-70
2022/03/13 06:46:12;;;;;;;8.55;4.17;;;;;;;;;;1713598;84;21080;-69
2022/03/13 06:48:39;;;;;;;7.83;4.17;;;;;;;;;;1713869;84;21060;-70
2022/03/13 06:51:06;;;;;;;9.40;4.70;;;;;;;;;;1713742;84;21033;-69
2022/03/13 06:53:35;;;;;;;6.67;4.40;;;;;;;;;;1713805;84;21013;-70
2022/03/13 06:56:01;;;;;;;10.05;4.87;;;;;;;;;;1713794;84;21520;-69
2022/03/13 06:58:28;;;;;;;9.08;4.50;;;;;;;;;;1713802;84;21709;-69
2022/03/13 07:00:54;;;;;;;8.13;4.50;;;;;;;;;;1713597;84;21084;-71
2022/03/13 07:03:20;;;;;;;9.48;4.90;;;;;;;;;;1713766;82;21143;-69
2022/03/13 07:05:47;;;;;;;9.75;4.45;;;;;;;;;;1713748;84;21085;-70
2022/03/13 07:08:15;;;;;;;9.13;5.15;;;;;;;;;;1713631;84;21123;-70
2022/03/13 07:10:42;;;;;;;8.98;5.25;;;;;;;;;;1713583;84;21072;-70
2022/03/13 07:13:09;;;;;;;8.38;4.47;;;;;;;;;;1713773;84;21033;-70
2022/03/13 07:15:36;;;;;;;8.53;4.65;;;;;;;;;;1713592;84;21044;-70
2022/03/13 07:18:03;;;;;;;10.30;4.83;;;;;;;;;;1713825;84;21052;-71
2022/03/13 07:20:29;;;;;;;9.13;4.78;;;;;;;;;;1713712;84;21564;-70
2022/03/13 07:22:57;;;;;;;8.18;3.62;;;;;;;;;;1713575;83;21080;-71
2022/03/13 07:25:25;;;;;;;10.48;5.30;;;;;;;;;;1713866;84;21040;-70
2022/03/13 07:27:51;;;;;;;9.08;4.60;;;;;;;;;;1713649;84;21064;-69
2022/03/13 07:30:18;;;;;;;10.72;4.47;;;;;;;;;;1713781;84;21572;-69
2022/03/13 07:32:45;;;;;;;10.25;4.83;;;;;;;;;;1713666;83;21583;-70
2022/03/13 07:35:12;;;;;;;8.50;4.40;;;;;;;;;;1713536;84;21643;-69
2022/03/13 07:37:40;;;;;;;8.73;4.85;;;;;;;;;;1713794;84;21076;-69
2022/03/13 07:40:08;;;;;;;7.47;4.15;;;;;;;;;;1713876;84;21072;-69
2022/03/13 07:42:34;;;;;;;8.73;4.25;;;;;;;;;;1713951;84;21044;-69
2022/03/13 07:45:01;;;;;;;7.03;4.03;;;;;;;;;;1713750;84;21083;-69
2022/03/13 07:47:30;;;;;;;7.72;3.87;;;;;;;;;;1713612;83;22192;-69
2022/03/13 07:49:57;;;;;;;11.00;5.03;;;;;;;;;;1713746;84;21037;-69
2022/03/13 07:52:24;;;;;;;6.85;4.00;;;;;;;;;;1713797;84;21076;-69
2022/03/13 07:54:50;;;;;;;8.75;4.60;;;;;;;;;;1713726;84;21599;-69
2022/03/13 07:57:17;;;;;;;10.23;4.78;;;;;;;;;;1713826;84;20993;-69
2022/03/13 07:59:45;;;;;;;7.30;4.05;;;;;;;;;;1713579;83;21447;-69
2022/03/13 08:02:11;;;;;;;9.90;4.75;;;;;;;;;;1713710;84;21024;-69
2022/03/13 08:04:38;;;;;;;8.38;4.20;;;;;;;;;;1713517;82;21698;-69
2022/03/13 08:07:05;;;;;;;9.15;4.42;;;;;;;;;;1713486;84;21584;-69
2022/03/13 08:09:31;;;;;;;9.35;4.60;;;;;;;;;;1713836;84;20977;-69
2022/03/13 08:11:57;;;;;;;7.90;4.40;;;;;;;;;;1713760;84;21079;-70
2022/03/13 08:14:26;;;;;;;8.25;4.83;;;;;;;;;;1713658;83;21056;-69
2022/03/13 08:16:53;;;;;;;8.43;4.80;;;;;;;;;;1713673;84;20993;-69
2022/03/13 08:19:20;;;;;;;12.03;5.12;;;;;;;;;;1713406;84;21143;-70
2022/03/13 08:21:47;;;;;;;7.95;4.20;;;;;;;;;;1713668;84;21140;-70
2022/03/13 08:24:15;;;;;;;7.65;4.12;;;;;;;;;;1713764;84;21025;-70
2022/03/13 08:26:41;;;;;;;9.65;4.90;;;;;;;;;;1713644;84;21025;-70
2022/03/13 08:29:08;;;;;;;7.83;3.95;;;;;;;;;;1713815;84;21084;-69
2022/03/13 08:31:35;;;;;;;6.97;3.60;;;;;;;;;;1713612;84;21049;-70
2022/03/13 08:34:07;;;;;;;7.15;3.83;;;;;;;;;;1713735;83;21088;-68
2022/03/13 08:36:31;;;;;;;9.50;4.67;;;;;;;;;;1713464;84;21556;-69
2022/03/13 08:38:57;;;;;;;8.43;3.95;;;;;;;;;;1713734;84;21623;-69
2022/03/13 08:41:24;;;;;;;9.13;4.20;;;;;;;;;;1713742;84;21029;-69
2022/03/13 08:43:51;;;;;;;7.15;4.15;;;;;;;;;;1713659;83;21544;-69
2022/03/13 08:46:17;;;;;;;7.92;4.17;;;;;;;;;;1713763;84;21092;-70
2022/03/13 08:48:44;;;;;;;8.83;4.42;;;;;;;;;;1713729;84;20993;-70
2022/03/13 08:51:13;;;;;;;7.97;4.15;;;;;;;;;;1713406;84;21615;-70
2022/03/13 08:53:42;;;;;;;7.05;4.08;;;;;;;;;;1713682;83;21088;-70
2022/03/13 08:56:13;;;;;;;7.92;3.80;;;;;;;;;;1713365;83;21073;-70
2022/03/13 08:58:38;;;;;;;8.05;3.80;;;;;;;;;;1713421;84;21591;-69
2022/03/13 09:01:04;;;;;;;9.88;5.10;;;;;;;;;;1713593;84;21104;-69
2022/03/13 09:03:32;;;;;;;9.48;4.87;;;;;;;;;;1713780;82;21108;-68
2022/03/13 09:05:59;;;;;;;6.60;4.17;;;;;;;;;;1710871;83;21488;-70
2022/03/13 09:08:27;;;;;;;6.97;4.12;;;;;;;;;;1704178;84;21598;-71
2022/03/13 09:10:53;;;;;;;7.42;4.10;;;;;;;;;;1704143;83;21075;-68
2022/03/13 09:13:21;;;;;;;10.78;4.55;;;;;;;;;;1704097;84;21667;-69
2022/03/13 09:15:47;;;;;;;7.92;3.92;;;;;;;;;;1704192;84;21044;-70
2022/03/13 09:18:14;;;;;;;6.95;4.03;;;;;;;;;;1704312;84;21008;-70
2022/03/13 09:20:41;;;;;;;5.03;3.15;;;;;;;;;;1704200;84;21071;-70
2022/03/13 09:23:08;;;;;;;7.78;3.35;;;;;;;;;;1704098;84;21048;-70
2022/03/13 09:25:35;;;;;;;7.08;3.90;;;;;;;;;;1704276;84;21063;-69
2022/03/13 09:28:02;;;;;;;6.60;3.92;;;;;;;;;;1704244;84;21047;-69
2022/03/13 09:30:29;;;;;;;7.58;4.20;;;;;;;;;;1703967;84;21079;-70
2022/03/13 09:32:56;;;;;;;8.75;4.20;;;;;;;;;;1704352;84;21012;-69
2022/03/13 09:35:22;;;;;;;8.70;4.75;;;;;;;;;;1703976;84;21040;-69
2022/03/13 09:37:49;;;;;;;9.55;4.60;;;;;;;;;;1704204;84;21048;-71
2022/03/13 09:40:17;;;;;;;8.38;4.62;;;;;;;;;;1672654;86;21094;-69
2022/03/13 09:42:45;;;;;;;7.45;4.20;;;;;;;;;;1645689;87;21585;-70
2022/03/13 09:45:11;;;;;;;7.00;4.12;;;;;;;;;;1645506;87;21048;-71
2022/03/13 09:47:40;;;;;;;7.45;3.70;;;;;;;;;;1665372;86;21013;-70
2022/03/13 09:50:07;;;;;;;9.73;5.03;;;;;;;;;;1665158;86;21525;-70
2022/03/13 09:52:36;;;;;;;7.87;4.60;;;;;;;;;;1665238;86;21017;-71
2022/03/13 09:55:02;;;;;;;7.25;4.08;;;;;;;;;;1665270;86;21034;-70
2022/03/13 09:57:29;;;;;;;10.00;4.70;;;;;;;;;;1664966;86;21069;-70
2022/03/13 09:59:56;;;;;;;8.50;4.35;;;;;;;;;;1665324;86;21085;-69
2022/03/13 10:02:24;;;;;;;8.58;4.80;;;;;;;;;;1665271;86;21040;-70
2022/03/13 10:04:51;;;;;;;7.10;4.20;;;;;;;;;;1664794;85;21113;-70
2022/03/13 10:07:17;;;;;;;7.40;4.05;;;;;;;;;;1658729;86;21625;-70
2022/03/13 10:09:43;;;;;;;7.60;4.45;;;;;;;;;;1656465;87;21028;-70
2022/03/13 10:12:14;;;;;;;7.50;3.67;;;;;;;;;;1656113;87;21135;-69
2022/03/13 10:14:55;;;;;;;6.85;4.05;;;;;;;;;;1656437;87;21064;-69
2022/03/13 10:17:25;;;;;;;7.20;4.15;;;;;;;;;;1656081;87;21072;-69
2022/03/13 10:19:52;;;;;;;7.25;4.28;;;;;;;;;;1656315;87;21084;-68
2022/03/13 10:22:19;;;;;;;6.12;3.55;;;;;;;;;;1656331;87;21634;-69
2022/03/13 10:24:46;;;;;;;7.70;3.95;;;;;;;;;;1656437;87;21603;-70
2022/03/13 10:27:14;;;;;;;9.95;4.75;;;;;;;;;;1656326;87;21614;-70
2022/03/13 10:29:42;;;;;;;7.10;4.05;;;;;;;;;;1656394;87;21045;-70
2022/03/13 10:32:09;;;;;;;6.67;4.00;;;;;;;;;;1656092;87;21139;-70
2022/03/13 10:34:35;;;;;;;7.58;4.33;;;;;;;;;;1656473;87;21056;-70
2022/03/13 10:37:02;;;;;;;6.83;4.28;;;;;;;;;;1656118;87;21099;-70
2022/03/13 10:39:30;;;;;;;8.03;4.42;;;;;;;;;;1656430;87;21591;-70
2022/03/13 10:42:01;;;;;;;8.25;4.12;;;;;;;;;;1656356;87;21098;-70
2022/03/13 10:44:31;;;;;;;5.15;3.22;;;;;;;;;;1656579;87;21096;-70
2022/03/13 10:46:58;;;;;;;7.62;4.30;;;;;;;;;;1656187;85;21107;-70
2022/03/13 10:49:45;;;;;;;8.83;4.50;;;;;;;;;;1656511;87;21071;-70
2022/03/13 10:52:25;;;;;;;6.50;3.87;;;;;;;;;;1654981;87;21093;-70
2022/03/13 10:54:52;;;;;;;7.45;4.15;;;;;;;;;;1656497;87;21543;-70
2022/03/13 10:57:19;;;;;;;8.10;3.98;;;;;;;;;;1656345;87;21072;-70
2022/03/13 10:59:45;;;;;;;5.33;3.87;;;;;;;;;;1656590;87;21076;-69
2022/03/13 11:02:14;;;;;;;8.08;4.33;;;;;;;;;;1652269;85;21650;-69
2022/03/13 11:04:48;;;;;;;7.50;4.22;;;;;;;;;;1656244;85;21135;-70
2022/03/13 11:07:14;;;;;;;;;;;;;;;;;;1658735;86;21060;-70
2022/03/13 11:09:42;;;;;;;5.58;3.95;;;;;;;;;;1656313;87;20170;-70
2022/03/13 11:12:17;;;;;;;7.80;3.95;;;;;;;;;;1656194;87;21120;-70
2022/03/13 11:14:40;;;;;;;8.03;3.98;;;;;;;;;;1655354;87;21123;-69
2022/03/13 11:17:08;;;;;;;7.58;3.80;;;;;;;;;;1656408;87;21068;-70
2022/03/13 11:19:36;;;;;;;5.40;3.70;;;;;;;;;;1656324;87;21080;-69
2022/03/13 11:22:03;;;;;;;5.40;3.72;;;;;;;;;;1651732;85;21099;-69
2022/03/13 11:24:30;;;;;;;6.97;3.50;;;;;;;;;;1667976;86;21614;-68
2022/03/13 11:26:56;;;;;;;7.80;4.28;;;;;;;;;;1668021;86;21610;-68
2022/03/13 11:29:42;;;;;;;8.20;4.28;;;;;;;;;;1640914;87;21102;-70
2022/03/13 11:32:28;;;;;;;6.85;4.05;;;;;;;;;;1667962;86;21032;-70
2022/03/13 11:35:03;;;;;;;7.40;4.03;;;;;;;;;;1640802;87;21086;-68
2022/03/13 11:37:31;;;;;;;5.90;3.52;;;;;;;;;;1639343;87;21546;-69
2022/03/13 11:40:00;;;;;;;8.18;4.35;;;;;;;;;;1641019;87;21577;-69
2022/03/13 11:42:26;;;;;;;5.92;3.65;;;;;;;;;;1640949;87;21051;-69
2022/03/13 11:44:52;;;;;;;7.80;4.60;;;;;;;;;;1656072;87;21449;-69
2022/03/13 11:47:23;;;;;;;6.35;3.42;;;;;;;;;;1651803;87;21052;-70
2022/03/13 11:49:49;;;;;;;6.92;3.72;;;;;;;;;;1656346;87;21108;-69
2022/03/13 11:52:20;;;;;;;5.65;3.55;;;;;;;;;;1656027;87;21092;-70
2022/03/13 11:54:55;;;;;;;7.95;4.10;;;;;;;;;;1656435;87;21079;-69
2022/03/13 11:57:24;;;;;;;7.42;3.95;;;;;;;;;;1656253;87;21107;-69
2022/03/13 12:00:08;;;;;;;14.18;5.05;;;;;;;;;;1656260;87;21643;-69
2022/03/13 12:02:42;;;;;;;7.35;3.72;;;;;;;;;;1655165;85;21048;-70
2022/03/13 12:05:29;;;;;;;7.35;3.77;;;;;;;;;;1656152;87;21147;-69
2022/03/13 12:07:57;;;;;;;8.98;4.40;;;;;;;;;;1656060;85;21092;-69
2022/03/13 12:10:25;;;;;;;6.08;4.10;;;;;;;;;;1656457;87;21068;-68
2022/03/13 12:13:04;;;;;;;4.25;2.77;;;;;;;;;;1667940;86;21631;-69
2022/03/13 12:15:30;;;;;;;5.85;3.20;;;;;;;;;;1641075;87;21101;-70
2022/03/13 12:17:57;;;;;;;5.17;3.60;;;;;;;;;;1641157;87;21108;-70
2022/03/13 12:20:25;;;;;;;7.90;3.67;;;;;;;;;;1656181;87;21095;-70
2022/03/13 12:22:53;;;;;;;7.53;3.77;;;;;;;;;;1656463;87;21064;-70
2022/03/13 12:25:23;;;;;;;6.60;4.10;;;;;;;;;;1667909;86;21094;-69
2022/03/13 12:27:50;;;;;;;5.17;2.95;;;;;;;;;;1668247;86;21506;-70
2022/03/13 12:30:18;;;;;;;5.22;3.30;;;;;;;;;;1641224;87;21054;-70
2022/03/13 12:32:45;;;;;;;8.88;4.12;;;;;;;;;;1640563;87;21074;-68
2022/03/13 12:35:12;;;;;;;7.90;3.55;;;;;;;;;;1641163;87;21114;-69
2022/03/13 12:37:38;;;;;;;7.05;3.65;;;;;;;;;;1641093;87;21060;-70
2022/03/13 12:40:06;;;;;;;7.62;4.53;;;;;;;;;;1656395;87;21071;-70
2022/03/13 12:42:34;;;;;;;5.47;3.58;;;;;;;;;;1656212;87;21330;-68
2022/03/13 12:45:04;;;;;;;7.97;4.37;;;;;;;;;;1656357;87;21515;-69
2022/03/13 12:47:31;;;;;;;6.92;3.77;;;;;;;;;;1656359;87;21119;-69
2022/03/13 12:49:59;;;;;;;7.15;4.10;;;;;;;;;;1656361;87;21121;-68
2022/03/13 12:52:26;;;;;;;6.17;3.77;;;;;;;;;;1656426;87;21543;-68
2022/03/13 12:56:43;;;;;;;7.03;3.58;;;;;;;;;;1801918;79;23624;-70
2022/03/13 12:59:11;;;;;;;7.25;3.80;;;;;;;;;;1761947;81;21437;-70
2022/03/13 13:01:40;;;;;;;7.20;4.33;;;;;;;;;;1760682;81;21096;-70
2022/03/13 13:04:06;;;;;;;9.20;4.17;;;;;;;;;;1741416;81;21112;-69
2022/03/13 13:06:38;;;;;;;7.87;4.08;;;;;;;;;;1711557;83;21068;-70
2022/03/13 13:09:05;;;;;;;5.67;3.70;;;;;;;;;;1729805;83;21017;-70
2022/03/13 13:11:33;;;;;;;5.92;3.42;;;;;;;;;;1730007;83;21036;-70
2022/03/13 13:14:01;;;;;;;7.92;4.12;;;;;;;;;;1730051;83;21017;-70
2022/03/13 13:16:31;;;;;;;8.50;3.90;;;;;;;;;;1729974;83;21025;-70
2022/03/13 13:18:58;;;;;;;10.58;5.30;;;;;;;;;;1730139;83;21036;-70
2022/03/13 13:21:34;;;;;;;7.28;4.15;;;;;;;;;;1729993;82;21061;-70
2022/03/13 13:24:00;;;;;;;7.92;4.33;;;;;;;;;;1729490;83;21040;-70
2022/03/13 13:26:40;;;;;;;9.10;4.28;;;;;;;;;;1729959;82;21111;-70
2022/03/13 13:29:07;;;;;;;6.17;4.25;;;;;;;;;;1730249;83;21057;-70
2022/03/13 13:31:34;;;;;;;8.58;4.40;;;;;;;;;;1729963;82;21531;-69
2022/03/13 13:34:14;;;;;;;10.18;4.20;;;;;;;;;;1730036;83;21580;-70
2022/03/13 13:36:41;;;;;;;10.25;4.85;;;;;;;;;;1730169;83;21513;-70
2022/03/13 13:39:07;;;;;;;8.40;4.10;;;;;;;;;;1730246;82;21552;-70
2022/03/13 13:41:34;;;;;;;7.60;4.28;;;;;;;;;;1730134;82;21025;-70
2022/03/13 13:44:03;;;;;;;8.18;4.75;;;;;;;;;;1729976;82;21536;-70
2022/03/13 13:46:30;;;;;;;11.18;4.50;;;;;;;;;;1729982;82;21037;-69
2022/03/13 13:48:57;;;;;;;8.33;4.42;;;;;;;;;;1730146;83;21096;-69
2022/03/13 13:51:33;;;;;;;10.03;4.90;;;;;;;;;;1729894;82;21095;-69
2022/03/13 13:54:14;;;;;;;12.13;5.45;;;;;;;;;;1729938;83;20986;-69
2022/03/13 13:56:42;;;;;;;8.10;4.42;;;;;;;;;;1718131;83;21097;-69
2022/03/13 13:59:18;;;;;;;9.03;4.35;;;;;;;;;;1706205;83;21033;-69
2022/03/13 14:01:45;;;;;;;10.35;4.92;;;;;;;;;;1717335;83;21120;-68
2022/03/13 14:04:12;;;;;;;8.20;4.30;;;;;;;;;;1717405;82;21151;-69
2022/03/13 14:06:40;;;;;;;8.63;4.03;;;;;;;;;;1716991;83;21584;-69
2022/03/13 14:09:06;;;;;;;5.65;3.25;;;;;;;;;;1716887;83;21064;-69
2022/03/13 14:11:33;;;;;;;7.72;4.45;;;;;;;;;;1716887;83;21595;-69
2022/03/13 14:14:01;;;;;;;8.78;4.40;;;;;;;;;;1716708;83;21524;-69
2022/03/13 14:16:28;;;;;;;8.70;4.53;;;;;;;;;;1716795;83;21018;-70
2022/03/13 14:18:54;;;;;;;7.03;4.10;;;;;;;;;;1716981;83;21612;-68
2022/03/13 14:21:21;;;;;;;9.88;4.47;;;;;;;;;;1716816;83;21088;-69
2022/03/13 14:23:48;;;;;;;8.13;4.58;;;;;;;;;;1716822;83;21113;-69
2022/03/13 14:26:14;;;;;;;7.33;4.83;;;;;;;;;;1716894;83;21017;-69
2022/03/13 14:28:40;;;;;;;8.45;4.60;;;;;;;;;;1716952;83;21017;-69
2022/03/13 14:31:07;;;;;;;9.43;4.87;;;;;;;;;;1716857;83;21046;-69
2022/03/13 14:33:34;;;;;;;7.55;4.62;;;;;;;;;;1716956;83;21065;-69
2022/03/13 14:36:01;;;;;;;9.08;5.45;;;;;;;;;;1716842;83;21073;-69
2022/03/13 14:38:28;;;;;;;8.55;4.58;;;;;;;;;;1716571;83;21128;-69
2022/03/13 14:40:56;;;;;;;8.33;4.67;;;;;;;;;;1717002;83;21116;-70
2022/03/13 14:43:22;;;;;;;6.40;3.55;;;;;;;;;;1716861;83;21073;-69
2022/03/13 14:45:49;;;;;;;5.65;3.72;;;;;;;;;;1716848;83;21065;-69
2022/03/13 14:48:15;;;;;;;7.03;3.70;;;;;;;;;;1716598;83;21073;-69
2022/03/13 14:50:46;;;;;;;9.50;5.00;;;;;;;;;;1716943;83;20994;-69